createdAt,value
2018-12-18T00:01:46.317Z,5.59
2018-12-18T00:04:14.521Z,5.58
2018-12-18T00:06:42.298Z,5.59
2018-12-18T00:09:10.755Z,5.58
2018-12-18T00:11:39.025Z,5.59
2018-12-18T00:14:06.925Z,5.58
2018-12-18T00:16:36.177Z,5.60
2018-12-18T00:19:04.697Z,4.66
2018-12-18T00:21:33.017Z,5.61
2018-12-18T00:24:03.938Z,5.61
2018-12-18T00:26:32.857Z,5.64
2018-12-18T00:29:02.341Z,5.63
2018-12-18T00:31:30.402Z,5.62
2018-12-18T00:33:59.258Z,5.62
2018-12-18T00:36:26.929Z,5.63
2018-12-18T00:38:55.140Z,5.65
2018-12-18T00:41:23.274Z,5.39
2018-12-18T00:43:51.288Z,5.66
2018-12-18T00:46:19.663Z,5.67
2018-12-18T00:48:48.318Z,5.65
2018-12-18T00:51:16.327Z,5.68
2018-12-18T00:53:44.466Z,5.69
2018-12-18T00:56:12.628Z,5.70
2018-12-18T00:58:40.517Z,5.32
2018-12-18T01:01:08.303Z,5.69
2018-12-18T01:03:38.732Z,5.69
2018-12-18T01:06:06.787Z,5.70
2018-12-18T01:08:34.678Z,5.70
2018-12-18T01:11:02.876Z,5.70
2018-12-18T01:13:31.042Z,5.70
2018-12-18T01:15:58.920Z,5.71
2018-12-18T01:18:26.794Z,5.69
2018-12-18T01:20:54.963Z,5.70
2018-12-18T01:23:23.910Z,5.59
2018-12-18T01:25:51.834Z,5.69
2018-12-18T01:28:19.526Z,5.66
2018-12-18T01:30:47.466Z,5.60
2018-12-18T01:33:15.371Z,5.54
2018-12-18T01:35:43.276Z,5.51
2018-12-18T01:38:11.766Z,4.56
2018-12-18T01:40:39.963Z,5.40
2018-12-18T01:43:07.895Z,5.26
2018-12-18T01:45:35.694Z,5.37
2018-12-18T01:48:03.624Z,5.37
2018-12-18T01:50:31.470Z,5.38
2018-12-18T01:52:59.903Z,5.38
2018-12-18T01:55:28.067Z,5.38
2018-12-18T01:57:56.448Z,5.38
2018-12-18T02:00:24.818Z,5.35
2018-12-18T02:02:53.049Z,5.36
2018-12-18T02:05:20.987Z,5.32
2018-12-18T02:07:49.511Z,5.31
2018-12-18T02:10:17.281Z,5.28
2018-12-18T02:12:45.179Z,5.26
2018-12-18T02:15:13.902Z,5.25
2018-12-18T02:17:42.285Z,5.24
2018-12-18T02:20:10.195Z,5.24
2018-12-18T02:22:38.531Z,5.25
2018-12-18T02:25:06.712Z,5.26
2018-12-18T02:27:34.812Z,5.26
2018-12-18T02:30:03.330Z,5.21
2018-12-18T02:32:31.312Z,5.17
2018-12-18T02:34:59.266Z,5.13
2018-12-18T02:37:27.764Z,5.09
2018-12-18T02:39:56.155Z,5.08
2018-12-18T02:42:24.135Z,4.96
2018-12-18T02:44:52.803Z,5.07
2018-12-18T02:47:20.494Z,5.08
2018-12-18T02:49:48.818Z,5.07
2018-12-18T02:52:17.281Z,4.80
2018-12-18T02:54:45.271Z,3.77
2018-12-18T02:57:13.119Z,5.03
2018-12-18T02:59:41.742Z,5.02
2018-12-18T03:02:09.837Z,4.87
2018-12-18T03:04:37.744Z,4.95
2018-12-18T03:07:05.941Z,4.95
2018-12-18T03:09:33.823Z,4.94
2018-12-18T03:12:01.720Z,4.93
2018-12-18T03:14:30.277Z,4.94
2018-12-18T03:16:58.364Z,4.94
2018-12-18T03:19:26.310Z,4.81
2018-12-18T03:21:54.531Z,4.96
2018-12-18T03:24:22.668Z,4.97
2018-12-18T03:26:50.549Z,4.97
2018-12-18T03:29:18.731Z,4.97
2018-12-18T03:31:50.535Z,4.97
2018-12-18T03:34:18.607Z,3.66
2018-12-18T03:36:47.079Z,3.62
2018-12-18T03:39:15.040Z,4.79
2018-12-18T03:41:42.760Z,4.92
2018-12-18T03:44:11.373Z,4.93
2018-12-18T03:46:39.647Z,4.96
2018-12-18T03:49:07.485Z,4.98
2018-12-18T03:51:35.737Z,5.01
2018-12-18T03:54:04.015Z,5.02
2018-12-18T03:56:32.010Z,4.82
2018-12-18T03:59:01.173Z,5.07
2018-12-18T04:01:29.823Z,5.08
2018-12-18T04:03:57.709Z,5.07
2018-12-18T04:06:25.555Z,4.62
2018-12-18T04:08:53.502Z,5.07
2018-12-18T04:11:21.570Z,5.09
2018-12-18T04:13:50.040Z,5.11
2018-12-18T04:16:17.783Z,5.15
2018-12-18T04:18:45.977Z,5.18
2018-12-18T04:21:13.831Z,4.83
2018-12-18T04:23:41.696Z,5.18
2018-12-18T04:26:13.995Z,5.08
2018-12-18T04:28:42.419Z,5.20
2018-12-18T04:31:10.684Z,5.21
2018-12-18T04:33:39.120Z,5.23
2018-12-18T04:36:07.584Z,5.24
2018-12-18T04:38:35.647Z,5.11
2018-12-18T04:41:03.471Z,5.22
2018-12-18T04:43:32.141Z,5.23
2018-12-18T04:46:00.413Z,5.24
2018-12-18T04:48:28.140Z,5.02
2018-12-18T04:50:56.514Z,5.24
2018-12-18T04:53:24.457Z,5.24
2018-12-18T04:56:23.228Z,5.26
2018-12-18T04:58:51.757Z,5.24
2018-12-18T05:01:19.637Z,5.12
2018-12-18T05:03:47.732Z,5.24
2018-12-18T05:06:15.680Z,5.25
2018-12-18T05:08:43.820Z,4.80
2018-12-18T05:11:13.205Z,5.28
2018-12-18T05:13:41.749Z,5.29
2018-12-18T05:16:10.064Z,4.96
2018-12-18T05:18:38.440Z,5.08
2018-12-18T05:21:07.151Z,5.36
2018-12-18T05:23:35.135Z,5.37
2018-12-18T05:26:03.041Z,5.39
2018-12-18T05:28:31.158Z,5.39
2018-12-18T05:30:59.442Z,5.14
2018-12-18T05:33:27.504Z,5.39
2018-12-18T05:35:56.147Z,5.40
2018-12-18T05:38:23.943Z,5.19
2018-12-18T05:40:51.974Z,5.42
2018-12-18T05:43:20.363Z,5.44
2018-12-18T05:45:48.391Z,5.46
2018-12-18T05:48:16.467Z,5.47
2018-12-18T05:50:44.649Z,5.26
2018-12-18T05:53:12.605Z,5.51
2018-12-18T05:55:40.389Z,5.51
2018-12-18T05:58:08.406Z,5.49
2018-12-18T06:00:36.349Z,5.45
2018-12-18T06:03:04.381Z,5.43
2018-12-18T06:05:32.586Z,5.10
2018-12-18T06:08:01.823Z,5.40
2018-12-18T06:10:29.888Z,5.44
2018-12-18T06:12:58.772Z,5.45
2018-12-18T06:15:26.715Z,5.44
2018-12-18T06:17:55.200Z,5.44
2018-12-18T06:20:23.651Z,5.47
2018-12-18T06:22:51.771Z,5.48
2018-12-18T06:25:20.010Z,5.47
2018-12-18T06:27:48.191Z,5.45
2018-12-18T06:30:15.918Z,5.43
2018-12-18T06:32:43.640Z,5.42
2018-12-18T06:35:11.740Z,5.42
2018-12-18T06:37:39.484Z,5.43
2018-12-18T06:40:07.423Z,5.43
2018-12-18T06:42:35.212Z,5.42
2018-12-18T06:45:06.017Z,5.43
2018-12-18T06:47:33.757Z,5.44
2018-12-18T06:50:02.903Z,5.41
2018-12-18T06:52:30.663Z,5.36
2018-12-18T06:54:58.432Z,5.33
2018-12-18T06:57:26.710Z,5.32
2018-12-18T06:59:54.593Z,5.31
2018-12-18T07:02:22.427Z,5.29
2018-12-18T07:04:50.645Z,5.23
2018-12-18T07:07:18.501Z,5.15
2018-12-18T07:09:46.518Z,5.11
2018-12-18T07:12:14.628Z,5.04
2018-12-18T07:14:42.679Z,4.97
2018-12-18T07:17:10.745Z,4.92
2018-12-18T07:19:38.834Z,4.86
2018-12-18T07:22:06.621Z,4.84
2018-12-18T07:24:34.410Z,4.78
2018-12-18T07:27:02.304Z,3.02
2018-12-18T07:29:30.745Z,4.69
2018-12-18T07:31:58.520Z,4.64
2018-12-18T07:34:33.249Z,4.62
2018-12-18T07:36:55.395Z,3.45
2018-12-18T07:39:23.373Z,4.56
2018-12-18T07:41:51.139Z,4.54
2018-12-18T07:44:19.167Z,4.51
2018-12-18T07:46:46.980Z,3.91
2018-12-18T07:49:15.118Z,4.47
2018-12-18T07:51:42.902Z,4.46
2018-12-18T07:54:10.879Z,4.45
2018-12-18T07:56:39.473Z,3.34
2018-12-18T07:59:07.392Z,4.41
2018-12-18T08:01:35.697Z,2.84
2018-12-18T08:04:03.875Z,3.91
2018-12-18T08:06:31.740Z,4.37
2018-12-18T08:09:01.237Z,4.36
2018-12-18T08:11:29.724Z,4.36
2018-12-18T08:13:57.767Z,4.38
2018-12-18T08:16:25.808Z,4.42
2018-12-18T08:18:54.240Z,4.42
2018-12-18T08:21:22.157Z,4.48
2018-12-18T08:23:49.902Z,4.52
2018-12-18T08:26:18.273Z,4.54
2018-12-18T08:28:46.007Z,4.57
2018-12-18T08:31:13.842Z,4.63
2018-12-18T08:33:42.019Z,4.67
2018-12-18T08:36:09.787Z,3.44
2018-12-18T08:38:37.619Z,4.74
2018-12-18T08:41:06.105Z,4.77
2018-12-18T08:43:34.448Z,4.80
2018-12-18T08:46:02.470Z,4.83
2018-12-18T08:48:31.291Z,4.81
2018-12-18T08:50:59.283Z,4.59
2018-12-18T08:53:28.125Z,4.82
2018-12-18T08:55:56.911Z,4.83
2018-12-18T08:58:24.631Z,4.82
2018-12-18T09:00:53.040Z,4.80
2018-12-18T09:03:20.755Z,4.72
2018-12-18T09:05:48.869Z,4.06
2018-12-18T09:08:17.361Z,4.85
2018-12-18T09:10:45.163Z,4.87
2018-12-18T09:13:13.396Z,3.15
2018-12-18T09:15:47.707Z,4.90
2018-12-18T09:18:15.577Z,4.91
2018-12-18T09:20:44.001Z,4.92
2018-12-18T09:23:12.099Z,4.97
2018-12-18T09:25:40.240Z,4.99
2018-12-18T09:28:08.227Z,5.02
2018-12-18T09:30:42.505Z,5.05
2018-12-18T09:33:05.644Z,5.09
2018-12-18T09:35:34.123Z,5.10
2018-12-18T09:38:07.402Z,5.19
2018-12-18T09:41:46.176Z,5.12
2018-12-18T09:44:17.338Z,5.31
2018-12-18T09:46:46.325Z,5.38
2018-12-18T09:49:14.776Z,5.42
2018-12-18T09:51:42.824Z,5.47
2018-12-18T09:54:11.486Z,5.57
2018-12-18T09:56:44.613Z,5.68
2018-12-18T09:59:12.873Z,5.40
2018-12-18T10:01:41.842Z,5.93
2018-12-18T10:04:09.790Z,6.02
2018-12-18T10:06:38.715Z,6.08
2018-12-18T10:09:09.680Z,6.11
2018-12-18T10:11:36.559Z,6.13
2018-12-18T10:14:04.760Z,6.19
2018-12-18T10:16:32.755Z,5.26
2018-12-18T10:19:00.696Z,6.34
2018-12-18T10:21:28.721Z,6.42
2018-12-18T10:23:56.738Z,6.18
2018-12-18T10:26:26.624Z,6.55
2018-12-18T10:28:55.496Z,6.62
2018-12-18T10:31:25.335Z,6.71
2018-12-18T10:33:55.695Z,5.76
2018-12-18T10:36:23.807Z,6.97
2018-12-18T10:38:51.867Z,7.03
2018-12-18T10:41:20.481Z,7.13
2018-12-18T10:43:48.971Z,7.21
2018-12-18T10:46:19.926Z,7.28
2018-12-18T10:48:48.971Z,7.24
2018-12-18T10:51:18.209Z,7.00
2018-12-18T10:53:46.029Z,7.49
2018-12-18T10:56:14.517Z,7.53
2018-12-18T10:58:44.938Z,7.52
2018-12-18T11:02:17.709Z,7.53
2018-12-18T11:04:47.304Z,7.66
2018-12-18T11:07:18.258Z,7.74
2018-12-18T11:09:47.250Z,7.82
2018-12-18T11:12:21.792Z,7.84
2018-12-18T11:14:49.916Z,7.92
2018-12-18T11:17:18.155Z,8.00
2018-12-18T11:19:46.130Z,8.10
2018-12-18T11:22:15.111Z,8.17
2018-12-18T11:24:43.883Z,8.22
2018-12-18T11:27:11.899Z,8.32
2018-12-18T11:29:39.632Z,8.40
2018-12-18T11:32:09.506Z,8.43
2018-12-18T11:34:36.472Z,8.07
2018-12-18T11:37:05.042Z,8.23
2018-12-18T11:39:33.151Z,8.61
2018-12-18T11:42:01.016Z,8.57
2018-12-18T11:44:29.223Z,8.18
2018-12-18T11:46:57.423Z,8.66
2018-12-18T11:49:25.366Z,7.46
2018-12-18T11:51:54.908Z,8.61
2018-12-18T11:54:24.441Z,8.63
2018-12-18T11:56:52.380Z,8.63
2018-12-18T11:59:21.586Z,8.67
2018-12-18T12:01:51.512Z,8.62
2018-12-18T12:04:22.219Z,6.99
2018-12-18T12:06:50.558Z,8.35
2018-12-18T12:09:19.310Z,7.91
2018-12-18T12:11:47.432Z,8.39
2018-12-18T12:14:16.737Z,8.37
2018-12-18T12:16:45.213Z,8.38
2018-12-18T12:19:13.079Z,8.38
2018-12-18T12:21:41.256Z,8.36
2018-12-18T12:24:08.977Z,8.35
2018-12-18T12:26:44.620Z,8.38
2018-12-18T12:29:13.838Z,8.39
2018-12-18T12:31:41.888Z,7.90
2018-12-18T12:34:09.816Z,8.33
2018-12-18T12:36:39.467Z,8.36
2018-12-18T12:39:09.988Z,8.39
2018-12-18T12:41:38.223Z,8.38
2018-12-18T12:44:08.993Z,8.39
2018-12-18T12:46:37.339Z,8.26
2018-12-18T12:49:10.736Z,8.35
2018-12-18T12:51:38.992Z,8.33
2018-12-18T12:54:06.995Z,7.30
2018-12-18T12:56:35.320Z,8.19
2018-12-18T12:59:03.383Z,7.80
2018-12-18T13:01:31.101Z,7.57
2018-12-18T13:03:58.825Z,8.06
2018-12-18T13:06:27.180Z,8.01
2018-12-18T13:08:56.322Z,7.75
2018-12-18T13:11:29.963Z,7.91
2018-12-18T13:13:59.994Z,7.84
2018-12-18T13:16:29.324Z,7.76
2018-12-18T13:18:59.116Z,7.70
2018-12-18T13:21:30.528Z,7.65
2018-12-18T13:23:58.448Z,7.58
2018-12-18T13:26:26.678Z,7.56
2018-12-18T13:28:59.673Z,7.54
2018-12-18T13:31:28.386Z,7.19
2018-12-18T13:33:59.333Z,7.37
2018-12-18T13:36:30.202Z,7.48
2018-12-18T13:38:59.130Z,7.49
2018-12-18T13:41:26.955Z,7.14
2018-12-18T13:43:55.464Z,7.38
2018-12-18T13:46:23.944Z,7.33
2018-12-18T13:48:54.957Z,7.30
2018-12-18T13:51:32.123Z,7.26
2018-12-18T13:54:00.546Z,7.22
2018-12-18T13:56:30.125Z,7.19
2018-12-18T13:59:00.380Z,7.16
2018-12-18T14:01:33.721Z,7.14
2018-12-18T14:04:05.493Z,5.71
2018-12-18T14:06:33.783Z,7.08
2018-12-18T14:09:02.269Z,7.03
2018-12-18T14:11:30.398Z,6.96
2018-12-18T14:13:58.356Z,6.90
2018-12-18T14:16:26.898Z,5.64
2018-12-18T14:18:54.814Z,6.76
2018-12-18T14:21:23.843Z,6.73
2018-12-18T14:23:51.787Z,6.69
2018-12-18T14:26:20.940Z,6.53
2018-12-18T14:28:48.742Z,6.62
2018-12-18T14:31:16.984Z,6.59
2018-12-18T14:33:45.484Z,6.53
2018-12-18T14:36:14.278Z,6.48
2018-12-18T14:38:42.952Z,6.43
2018-12-18T14:41:10.923Z,5.73
2018-12-18T14:43:39.091Z,6.36
2018-12-18T14:46:07.682Z,6.33
2018-12-18T14:48:39.502Z,6.30
2018-12-18T14:51:07.710Z,5.81
2018-12-18T14:53:35.970Z,6.21
2018-12-18T14:56:13.358Z,6.14
2018-12-18T14:58:44.498Z,6.06
2018-12-18T15:01:19.456Z,4.86
2018-12-18T15:03:47.239Z,5.89
2018-12-18T15:06:15.032Z,5.71
2018-12-18T15:08:42.779Z,5.79
2018-12-18T15:11:10.791Z,5.74
2018-12-18T15:13:40.491Z,5.35
2018-12-18T15:16:08.532Z,5.38
2018-12-18T15:18:39.659Z,5.58
2018-12-18T15:21:08.903Z,5.54
2018-12-18T15:23:37.367Z,5.49
2018-12-18T15:26:10.441Z,5.45
2018-12-18T15:28:38.663Z,3.62
2018-12-18T15:31:06.819Z,5.37
2018-12-18T15:33:41.291Z,5.33
2018-12-18T15:36:09.224Z,4.38
2018-12-18T15:38:37.475Z,5.27
2018-12-18T15:41:07.850Z,5.23
2018-12-18T15:43:36.937Z,5.18
2018-12-18T15:46:10.752Z,5.14
2018-12-18T15:48:47.698Z,5.11
2018-12-18T15:51:15.575Z,5.08
2018-12-18T15:53:44.720Z,3.46
2018-12-18T15:56:15.903Z,5.05
2018-12-18T15:58:47.645Z,5.01
2018-12-18T16:01:16.288Z,4.06
2018-12-18T16:03:44.640Z,4.94
2018-12-18T16:06:12.648Z,4.92
2018-12-18T16:08:41.754Z,4.89
2018-12-18T16:11:11.113Z,4.85
2018-12-18T16:13:39.141Z,4.80
2018-12-18T16:16:09.851Z,4.77
2018-12-18T16:18:39.471Z,4.73
2018-12-18T16:21:14.285Z,4.34
2018-12-18T16:23:44.473Z,4.67
2018-12-18T16:26:15.465Z,4.63
2018-12-18T16:28:47.631Z,4.60
2018-12-18T16:31:19.674Z,4.58
2018-12-18T16:33:49.693Z,4.54
2018-12-18T16:36:19.860Z,4.30
2018-12-18T16:38:50.185Z,4.47
2018-12-18T16:41:18.272Z,4.42
2018-12-18T16:43:46.059Z,4.38
2018-12-18T16:46:14.406Z,4.33
2018-12-18T16:48:43.097Z,4.27
2018-12-18T16:51:11.065Z,4.22
2018-12-18T16:53:39.293Z,4.18
2018-12-18T16:56:07.413Z,4.12
2018-12-18T16:58:35.205Z,4.07
2018-12-18T17:01:04.052Z,4.01
2018-12-18T17:03:33.432Z,3.96
2018-12-18T17:06:01.740Z,3.93
2018-12-18T17:08:30.187Z,3.66
2018-12-18T17:10:59.138Z,3.73
2018-12-18T17:13:32.204Z,3.81
2018-12-18T17:16:00.949Z,3.77
2018-12-18T17:18:28.976Z,3.63
2018-12-18T17:20:56.909Z,3.68
2018-12-18T17:23:26.053Z,3.41
2018-12-18T17:25:54.747Z,3.60
2018-12-18T17:28:22.812Z,3.57
2018-12-18T17:30:52.261Z,3.51
2018-12-18T17:33:20.431Z,3.49
2018-12-18T17:35:49.768Z,3.46
2018-12-18T17:38:18.078Z,3.18
2018-12-18T17:40:46.219Z,3.41
2018-12-18T17:43:18.627Z,3.39
2018-12-18T17:45:50.945Z,3.34
2018-12-18T17:48:22.403Z,3.31
2018-12-18T17:50:52.333Z,3.27
2018-12-18T17:53:23.716Z,3.23
2018-12-18T17:56:03.632Z,1.82
2018-12-18T17:58:32.492Z,3.01
2018-12-18T18:01:03.408Z,3.11
2018-12-18T18:03:32.559Z,3.08
2018-12-18T18:06:04.148Z,3.06
2018-12-18T18:08:33.587Z,3.03
2018-12-18T18:11:01.859Z,3.00
2018-12-18T18:13:30.201Z,2.98
2018-12-18T18:16:00.699Z,1.87
2018-12-18T18:18:28.558Z,2.92
2018-12-18T18:20:58.763Z,2.91
2018-12-18T18:23:26.540Z,2.89
2018-12-18T18:25:56.923Z,2.87
2018-12-18T18:28:26.926Z,2.86
2018-12-18T18:30:54.713Z,2.83
2018-12-18T18:33:22.797Z,2.72
2018-12-18T18:35:51.719Z,2.57
2018-12-18T18:38:20.774Z,2.77
2018-12-18T18:40:48.516Z,2.72
2018-12-18T18:43:16.735Z,2.67
2018-12-18T18:45:45.792Z,2.63
2018-12-18T18:48:14.154Z,2.60
2018-12-18T18:50:42.463Z,2.59
2018-12-18T18:53:11.744Z,2.09
2018-12-18T18:55:40.836Z,2.54
2018-12-18T18:58:10.050Z,2.52
2018-12-18T19:00:50.996Z,2.50
2018-12-18T19:03:24.707Z,2.49
2018-12-18T19:05:52.777Z,2.46
2018-12-18T19:08:21.163Z,2.43
2018-12-18T19:10:49.192Z,2.41
2018-12-18T19:13:19.353Z,2.40
2018-12-18T19:15:47.209Z,2.38
2018-12-18T19:18:16.629Z,1.42
2018-12-18T19:20:44.827Z,2.34
2018-12-18T19:23:12.998Z,2.33
2018-12-18T19:25:40.921Z,2.33
2018-12-18T19:28:09.245Z,0.38
2018-12-18T19:30:37.700Z,2.32
2018-12-18T19:33:05.541Z,2.34
2018-12-18T19:35:33.675Z,2.34
2018-12-18T19:38:03.827Z,2.34
2018-12-18T19:40:33.232Z,2.34
2018-12-18T19:43:01.022Z,1.95
2018-12-18T19:45:36.540Z,2.33
2018-12-18T19:48:07.015Z,0.56
2018-12-18T19:50:35.730Z,1.69
2018-12-18T19:53:06.870Z,1.17
2018-12-18T19:55:45.331Z,1.40
2018-12-18T19:58:14.552Z,2.27
2018-12-18T20:00:42.371Z,2.26
2018-12-18T20:03:10.816Z,2.11
2018-12-18T20:05:43.875Z,2.22
2018-12-18T20:08:15.097Z,2.22
2018-12-18T20:10:43.075Z,2.20
2018-12-18T20:13:11.187Z,2.22
2018-12-18T20:15:39.303Z,2.22
2018-12-18T20:18:14.830Z,2.20
2018-12-18T20:20:42.952Z,2.19
2018-12-18T20:23:11.185Z,2.17
2018-12-18T20:25:39.014Z,2.15
2018-12-18T20:28:07.261Z,2.14
2018-12-18T20:30:35.194Z,2.12
2018-12-18T20:33:03.846Z,1.14
2018-12-18T20:35:31.819Z,2.08
2018-12-18T20:37:59.590Z,2.06
2018-12-18T20:40:27.384Z,1.66
2018-12-18T20:42:55.795Z,2.01
2018-12-18T20:45:23.520Z,2.01
2018-12-18T20:47:51.917Z,2.01
2018-12-18T20:50:19.724Z,2.01
2018-12-18T20:52:48.125Z,2.02
2018-12-18T20:55:16.428Z,2.00
2018-12-18T20:57:44.203Z,2.03
2018-12-18T21:00:13.069Z,2.03
2018-12-18T21:02:41.403Z,2.02
2018-12-18T21:05:10.027Z,2.01
2018-12-18T21:07:37.976Z,1.99
2018-12-18T21:10:07.728Z,1.98
2018-12-18T21:12:35.714Z,1.98
2018-12-18T21:15:04.013Z,1.96
2018-12-18T21:17:32.261Z,1.94
2018-12-18T21:20:00.200Z,1.95
2018-12-18T21:22:28.712Z,1.93
2018-12-18T21:24:57.390Z,1.93
2018-12-18T21:27:25.681Z,1.90
2018-12-18T21:29:54.841Z,1.87
2018-12-18T21:32:23.457Z,1.85
2018-12-18T21:34:51.416Z,1.83
2018-12-18T21:37:19.195Z,1.81
2018-12-18T21:39:48.632Z,1.80
2018-12-18T21:42:16.910Z,1.79
2018-12-18T21:44:44.919Z,1.76
2018-12-18T21:47:13.223Z,1.74
2018-12-18T21:49:41.784Z,1.68
2018-12-18T21:52:09.857Z,1.68
2018-12-18T21:54:38.751Z,1.65
2018-12-18T21:57:06.580Z,1.62
2018-12-18T21:59:34.680Z,1.59
2018-12-18T22:02:02.857Z,1.56
2018-12-18T22:04:30.821Z,1.53
2018-12-18T22:06:59.521Z,1.53
2018-12-18T22:09:28.505Z,1.52
2018-12-18T22:11:56.412Z,1.52
2018-12-18T22:14:27.758Z,1.49
2018-12-18T22:16:56.084Z,1.50
2018-12-18T22:19:24.114Z,1.49
2018-12-18T22:21:52.056Z,1.47
2018-12-18T22:24:20.580Z,1.44
2018-12-18T22:26:48.738Z,1.40
2018-12-18T22:29:16.794Z,1.36
2018-12-18T22:31:48.877Z,1.31
2018-12-18T22:34:17.107Z,1.27
2018-12-18T22:36:45.031Z,1.26
2018-12-18T22:39:13.636Z,1.23
2018-12-18T22:41:41.447Z,1.22
2018-12-18T22:44:09.530Z,1.20
2018-12-18T22:46:37.500Z,1.15
2018-12-18T22:49:05.428Z,1.12
2018-12-18T22:51:33.920Z,1.12
2018-12-18T22:54:02.016Z,1.10
2018-12-18T22:56:30.280Z,0.95
2018-12-18T22:58:58.747Z,1.06
2018-12-18T23:01:32.094Z,1.04
2018-12-18T23:04:01.355Z,1.03
2018-12-18T23:06:29.313Z,1.02
2018-12-18T23:08:57.006Z,1.01
2018-12-18T23:11:25.100Z,1.00
2018-12-18T23:13:53.439Z,1.01
2018-12-18T23:16:21.365Z,0.76
2018-12-18T23:18:49.169Z,1.02
2018-12-18T23:21:17.190Z,0.61
2018-12-18T23:23:45.415Z,1.02
2018-12-18T23:26:13.803Z,1.00
2018-12-18T23:28:41.757Z,1.02
2018-12-18T23:31:09.928Z,1.02
2018-12-18T23:33:39.321Z,0.48
2018-12-18T23:36:08.704Z,1.01
2018-12-18T23:38:36.647Z,1.01
2018-12-18T23:41:05.590Z,0.98
2018-12-18T23:43:33.620Z,0.99
2018-12-18T23:46:01.489Z,0.98
2018-12-18T23:48:29.715Z,0.98
2018-12-18T23:50:57.530Z,0.97
2018-12-18T23:53:25.580Z,0.38
2018-12-18T23:55:53.485Z,0.94
2018-12-18T23:58:21.452Z,0.48
